Time;durP1;ratioP1;P1;durP2;ratioP2;P2;SDS_P1;SDS_P2;PMS_P1;PMS_P2;Temp;Humidity;BMP_temperature;BMP_pressure;BME280_temperature;BME280_humidity;BME280_pressure;Samples;Min_cycle;Max_cycle;Signal;HPM_P1;HPM_P2
2023/01/04 02:12:10;;;;;;;1.95;1.80;;;;;;;8.12;100.00;101616.44;6154557;23;20021;-81
2023/01/04 02:14:37;;;;;;;1.60;1.52;;;;;;;8.13;100.00;101627.78;6156133;23;20463;-81
2023/01/04 02:17:25;;;;;;;1.50;1.40;;;;;;;8.15;100.00;101620.94;6132417;23;20318;-82
2023/01/04 02:20:26;;;;;;;2.05;1.95;;;;;;;8.18;100.00;101627.34;6157300;23;20018;-82
2023/01/04 02:23:15;;;;;;;1.88;1.65;;;;;;;8.19;100.00;101611.03;6131539;23;20025;-82
2023/01/04 02:26:12;;;;;;;1.88;1.77;;;;;;;8.23;100.00;101621.59;6108871;23;20084;-82
2023/01/04 02:29:30;;;;;;;2.22;1.92;;;;;;;8.25;100.00;101621.94;6133100;23;20542;-82
2023/01/04 02:32:03;;;;;;;2.00;1.90;;;;;;;8.28;100.00;101618.47;6096998;23;20027;-82
2023/01/04 02:34:39;;;;;;;1.63;1.50;;;;;;;8.30;100.00;101616.19;6096894;23;20022;-82
2023/01/04 02:37:18;;;;;;;3.22;1.75;;;;;;;8.33;100.00;101616.16;6097273;23;20022;-82
2023/01/04 02:40:02;;;;;;;2.17;2.08;;;;;;;8.36;100.00;101609.31;6097309;23;20023;-82
2023/01/04 02:45:28;;;;;;;2.67;1.75;;;;;;;8.40;100.00;101588.75;6096468;23;20353;-83
2023/01/04 02:50:51;;;;;;;3.47;2.38;;;;;;;8.44;100.00;101588.69;6098165;23;20440;-83
2023/01/04 02:53:21;;;;;;;2.80;2.42;;;;;;;8.45;100.00;101582.97;6097970;23;20031;-83
2023/01/04 02:56:09;;;;;;;4.70;2.47;;;;;;;8.49;100.00;101577.63;6097916;23;20486;-80
2023/01/04 02:58:56;;;;;;;2.90;2.70;;;;;;;8.53;100.00;101575.66;6097602;23;20024;-80
2023/01/04 03:08:25;;;;;;;3.40;2.72;;;;;;;8.60;100.00;101567.59;6073822;23;20018;-80
2023/01/04 03:11:02;;;;;;;3.20;2.70;;;;;;;8.60;100.00;101570.97;6098366;23;20027;-82
2023/01/04 03:13:32;;;;;;;2.83;2.63;;;;;;;8.62;100.00;101565.28;6097386;23;20027;-82
2023/01/04 03:16:17;;;;;;;2.90;2.70;;;;;;;8.64;100.00;101574.34;6098578;23;20019;-82
2023/01/04 03:18:49;;;;;;;3.55;2.60;;;;;;;8.68;100.00;101561.75;6098752;23;20555;-82
2023/01/04 03:21:17;;;;;;;;;;;;;;;8.70;100.00;101556.03;6098606;23;20023;-79
2023/01/04 03:35:47;;;;;;;3.47;3.28;;;;;;;8.81;100.00;101547.84;6097145;23;20472;-79
2023/01/04 03:50:55;;;;;;;3.05;2.85;;;;;;;9.02;100.00;101523.56;6160120;23;20410;-81
2023/01/04 03:53:24;;;;;;;8.00;3.80;;;;;;;9.06;100.00;101542.84;6159519;23;20069;-81
2023/01/04 03:55:52;;;;;;;3.97;3.78;;;;;;;9.07;100.00;101522.34;6159144;23;20030;-80
2023/01/04 03:58:20;;;;;;;4.10;3.90;;;;;;;9.11;100.00;101525.69;6132944;23;20018;-83
2023/01/04 04:00:47;;;;;;;3.75;3.55;;;;;;;9.15;100.00;101529.03;6159845;23;20072;-81
2023/01/04 04:03:14;;;;;;;4.05;3.85;;;;;;;9.17;100.00;101534.69;6159755;23;20097;-81
2023/01/04 04:08:29;;;;;;;4.05;3.65;;;;;;;9.19;100.00;101517.19;6159579;23;20482;-80
2023/01/04 04:13:48;;;;;;;4.10;3.47;;;;;;;9.28;100.00;101496.09;6159776;23;20078;-81
2023/01/04 04:16:15;;;;;;;3.33;3.10;;;;;;;9.32;100.00;101506.66;6159896;23;20022;-81
2023/01/04 04:18:42;;;;;;;3.10;2.80;;;;;;;9.35;100.00;101493.28;6160091;23;20093;-82
2023/01/04 04:21:09;;;;;;;3.38;3.08;;;;;;;9.41;100.00;101488.25;6159670;23;20018;-81
2023/01/04 04:23:35;;;;;;;2.72;2.55;;;;;;;9.45;100.00;101480.19;6159121;23;20456;-81
2023/01/04 04:26:02;;;;;;;2.92;2.72;;;;;;;9.48;100.00;101492.66;6159046;23;20532;-81
2023/01/04 04:28:28;;;;;;;6.68;2.90;;;;;;;9.48;100.00;101482.03;6159597;23;20432;-81
2023/01/04 04:30:55;;;;;;;2.95;2.75;;;;;;;9.51;100.00;101478.53;6133413;23;20018;-82
2023/01/04 04:33:21;;;;;;;3.15;2.95;;;;;;;9.52;100.00;101491.41;6133324;23;20065;-81
2023/01/04 04:35:53;;;;;;;2.92;2.70;;;;;;;9.53;100.00;101474.31;6158168;23;20054;-82
2023/01/04 04:38:20;;;;;;;3.05;2.90;;;;;;;9.54;100.00;101493.66;6159536;23;20015;-82
2023/01/04 04:43:34;;;;;;;2.63;2.42;;;;;;;9.60;100.00;101468.06;6133122;23;20900;-82
2023/01/04 04:46:02;;;;;;;3.17;2.55;;;;;;;9.63;100.00;101467.22;6159404;23;20022;-82
2023/01/04 04:48:28;;;;;;;2.10;2.00;;;;;;;9.65;100.00;101452.38;6159492;23;20014;-82
2023/01/04 04:50:58;;;;;;;3.70;2.70;;;;;;;9.68;100.00;101456.09;6159597;23;20014;-82
2023/01/04 04:53:24;;;;;;;3.22;3.00;;;;;;;9.69;100.00;101458.34;6108535;23;20045;-82
2023/01/04 04:55:52;;;;;;;2.97;2.53;;;;;;;9.69;100.00;101462.91;6158842;23;20156;-81
2023/01/04 04:58:20;;;;;;;2.47;2.38;;;;;;;9.70;100.00;101457.19;6132837;23;20467;-81
2023/01/04 05:00:46;;;;;;;2.67;2.47;;;;;;;9.69;100.00;101453.03;6159747;23;20018;-81
2023/01/04 05:03:13;;;;;;;5.05;2.70;;;;;;;9.68;100.00;101456.84;6132962;23;20558;-81
2023/01/04 05:05:41;;;;;;;2.50;2.40;;;;;;;9.70;100.00;101459.09;6159416;23;20022;-81
2023/01/04 05:08:08;;;;;;;3.00;2.80;;;;;;;9.70;100.00;101457.19;6159504;23;20018;-80
2023/01/04 05:10:36;;;;;;;2.55;2.35;;;;;;;9.72;100.00;101467.41;6158756;23;20064;-80
2023/01/04 05:13:04;;;;;;;3.35;2.42;;;;;;;9.71;100.00;101455.28;6158609;23;20025;-80
2023/01/04 05:15:51;;;;;;;2.53;2.42;;;;;;;9.72;100.00;101448.78;6159272;23;20018;-80
2023/01/04 05:18:19;;;;;;;2.50;2.30;;;;;;;9.71;100.00;101452.63;6159488;23;20048;-80
2023/01/04 05:20:47;;;;;;;4.57;2.58;;;;;;;9.70;100.00;101449.22;6159921;23;20474;-79
2023/01/04 05:23:15;;;;;;;2.28;2.05;;;;;;;9.70;100.00;101453.78;6108461;23;20049;-79
2023/01/04 05:25:42;;;;;;;3.03;1.85;;;;;;;9.71;100.00;101449.97;6132938;23;20114;-79
2023/01/04 05:28:09;;;;;;;2.90;2.80;;;;;;;9.70;100.00;101446.56;6159416;23;20014;-79
2023/01/04 05:30:50;;;;;;;2.90;2.70;;;;;;;9.72;100.00;101440.06;6132795;23;20017;-79
2023/01/04 05:33:23;;;;;;;5.07;3.20;;;;;;;9.70;100.00;101435.91;6133049;23;20018;-79
2023/01/04 05:35:51;;;;;;;5.05;3.17;;;;;;;9.70;100.00;101435.16;6159083;23;20025;-79
2023/01/04 05:38:19;;;;;;;3.30;3.00;;;;;;;9.70;100.00;101441.22;6158467;23;20022;-79
2023/01/04 05:40:47;;;;;;;3.20;3.00;;;;;;;9.72;100.00;101422.22;6159429;23;20021;-79
2023/01/04 05:43:14;;;;;;;3.58;3.38;;;;;;;9.73;100.00;101420.31;6159559;23;20018;-79
2023/01/04 05:45:47;;;;;;;3.03;2.83;;;;;;;9.73;100.00;101410.41;6159538;23;20085;-80
2023/01/04 05:48:14;;;;;;;3.45;3.03;;;;;;;9.73;100.00;101407.75;6133475;23;20383;-79
2023/01/04 05:50:42;;;;;;;3.15;3.03;;;;;;;9.73;100.00;101402.44;6159427;23;20093;-79
2023/01/04 05:53:09;;;;;;;3.15;2.92;;;;;;;9.74;100.00;101397.88;6132585;23;20089;-79
2023/01/04 05:55:35;;;;;;;3.50;3.30;;;;;;;9.75;100.00;101396.69;6158808;23;20495;-79
2023/01/04 05:58:02;;;;;;;3.50;3.22;;;;;;;9.76;100.00;101395.53;6132533;23;20022;-79
2023/01/04 06:00:29;;;;;;;2.90;2.72;;;;;;;9.76;100.00;101398.19;6159186;23;20018;-80
2023/01/04 06:02:55;;;;;;;3.63;3.42;;;;;;;9.77;100.00;101394.38;6159010;23;20022;-79
2023/01/04 06:05:24;;;;;;;3.38;3.17;;;;;;;9.78;100.00;101393.22;6157359;23;20025;-79
2023/01/04 06:07:51;;;;;;;3.20;3.00;;;;;;;9.80;100.00;101388.22;6132388;23;20017;-80
2023/01/04 06:10:18;;;;;;;3.17;3.03;;;;;;;9.82;100.00;101396.53;6159171;23;20018;-80
2023/01/04 06:12:46;;;;;;;3.17;2.92;;;;;;;9.82;100.00;101397.28;6127966;23;20022;-80
2023/01/04 06:15:12;;;;;;;3.90;2.58;;;;;;;9.82;100.00;101401.84;6129354;23;20078;-80
2023/01/04 06:17:40;;;;;;;2.83;2.60;;;;;;;9.82;100.00;101385.91;6129830;23;20015;-81
2023/01/04 06:20:08;;;;;;;2.72;2.53;;;;;;;9.82;100.00;101399.19;6129555;23;20014;-80
2023/01/04 06:22:36;;;;;;;2.85;2.65;;;;;;;9.84;100.00;101399.53;6128590;23;20015;-80
2023/01/04 06:25:03;;;;;;;2.83;2.63;;;;;;;9.86;100.00;101410.50;6128846;23;20029;-80
2023/01/04 06:27:30;;;;;;;2.58;2.47;;;;;;;9.88;100.00;101411.56;6129142;23;20424;-81
2023/01/04 06:29:56;;;;;;;3.15;2.83;;;;;;;9.90;100.00;101408.50;6129235;23;20015;-82
2023/01/04 06:32:23;;;;;;;2.45;2.35;;;;;;;9.92;100.00;101400.84;6129772;23;20049;-82
2023/01/04 06:34:49;;;;;;;2.58;2.42;;;;;;;9.93;100.00;101420.97;6130378;23;20022;-82
2023/01/04 06:37:16;;;;;;;3.03;2.83;;;;;;;9.94;100.00;101414.47;6129810;23;20015;-82
2023/01/04 06:39:43;;;;;;;2.50;2.30;;;;;;;9.94;100.00;101396.59;6128775;23;20063;-82
2023/01/04 06:42:43;;;;;;;2.53;2.40;;;;;;;9.97;100.00;101400.34;6129427;23;20018;-82
2023/01/04 06:44:56;;;;;;;3.00;2.47;;;;;;;9.99;100.00;101398.00;6128784;23;20066;-81
2023/01/04 06:47:22;;;;;;;2.55;2.35;;;;;;;9.98;100.00;101404.50;6127631;23;20593;-81
2023/01/04 06:49:50;;;;;;;2.75;2.50;;;;;;;10.00;100.00;101391.50;6128499;23;20105;-81
2023/01/04 06:52:17;;;;;;;3.08;2.70;;;;;;;10.00;100.00;101394.91;6130372;23;20371;-79
2023/01/04 06:54:43;;;;;;;2.88;2.70;;;;;;;10.02;100.00;101389.16;6130323;23;20432;-79
2023/01/04 06:57:10;;;;;;;2.88;2.58;;;;;;;10.06;100.00;101386.41;6129657;23;20018;-83
2023/01/04 06:59:37;;;;;;;3.35;3.15;;;;;;;10.05;100.00;101367.06;6128398;23;20015;-82
2023/01/04 07:02:04;;;;;;;2.83;2.63;;;;;;;10.07;100.00;101371.94;6129803;23;20474;-84
2023/01/04 07:04:30;;;;;;;3.03;2.72;;;;;;;10.06;100.00;101373.88;6128015;23;20101;-82
2023/01/04 07:06:57;;;;;;;3.45;3.20;;;;;;;10.07;100.00;101354.06;6129548;23;20015;-82
2023/01/04 07:09:24;;;;;;;3.20;3.00;;;;;;;10.07;100.00;101380.69;6128670;23;20022;-83
2023/01/04 07:11:50;;;;;;;3.25;2.95;;;;;;;10.08;100.00;101371.53;6131833;23;20018;-84
2023/01/04 07:14:17;;;;;;;3.22;2.90;;;;;;;10.09;100.00;101364.28;6133723;23;20026;-79
2023/01/04 07:16:43;;;;;;;5.05;3.20;;;;;;;10.09;100.00;101366.97;6159635;23;20439;-79
2023/01/04 07:19:10;;;;;;;3.40;2.97;;;;;;;10.08;100.00;101360.16;6159197;23;20094;-82
2023/01/04 07:21:36;;;;;;;4.70;2.78;;;;;;;10.09;100.00;101359.72;6133135;23;20015;-82
2023/01/04 07:24:03;;;;;;;5.65;3.17;;;;;;;10.10;100.00;101361.22;6159197;23;20028;-80
2023/01/04 07:26:29;;;;;;;4.40;3.05;;;;;;;10.10;100.00;101353.25;6133428;23;20451;-84
2023/01/04 07:29:15;;;;;;;4.05;2.80;;;;;;;10.10;100.00;101347.91;6157811;23;20069;-84
2023/01/04 07:31:47;;;;;;;6.05;2.80;;;;;;;10.10;100.00;101347.91;6109375;23;20033;-83
2023/01/04 07:34:15;;;;;;;3.13;2.67;;;;;;;10.12;100.00;101336.84;6132958;23;20511;-83
2023/01/04 07:36:41;;;;;;;2.78;2.55;;;;;;;10.13;100.00;101333.03;6161147;23;20025;-83
2023/01/04 07:39:10;;;;;;;2.33;2.20;;;;;;;10.13;100.00;101363.03;6158965;23;20450;-83
2023/01/04 07:41:40;;;;;;;5.80;2.65;;;;;;;10.14;100.00;101361.13;6160644;23;20045;-82
2023/01/04 07:44:09;;;;;;;5.30;2.83;;;;;;;10.14;100.00;101351.22;6159062;23;20017;-82
2023/01/04 07:46:37;;;;;;;5.00;2.50;;;;;;;10.13;100.00;101351.66;6160950;23;20455;-83
2023/01/04 07:49:04;;;;;;;2.95;2.60;;;;;;;10.13;100.00;101349.00;6160513;23;20018;-84
2023/01/04 07:51:37;;;;;;;4.95;2.22;;;;;;;10.12;100.00;101350.91;6111505;23;20022;-83
2023/01/04 07:54:03;;;;;;;5.43;2.20;;;;;;;10.13;100.00;101338.34;6134010;23;20030;-83
2023/01/04 07:56:30;;;;;;;3.78;2.40;;;;;;;10.14;100.00;101334.53;6136155;23;20014;-83
2023/01/04 07:58:58;;;;;;;3.53;2.10;;;;;;;10.13;100.00;101336.44;6134071;23;20384;-80
2023/01/04 08:01:26;;;;;;;2.75;2.05;;;;;;;10.13;100.00;101325.78;6160954;23;20022;-82
2023/01/04 08:03:52;;;;;;;8.70;2.53;;;;;;;10.14;100.00;101337.19;6160760;23;20018;-81
2023/01/04 08:06:20;;;;;;;5.82;2.08;;;;;;;10.14;100.00;101329.19;6135326;23;20025;-82
2023/01/04 08:08:47;;;;;;;5.07;1.90;;;;;;;10.14;100.00;101348.56;6110812;23;20041;-84
2023/01/04 08:11:16;;;;;;;2.28;1.65;;;;;;;10.14;100.00;101339.84;6162438;23;20053;-82
2023/01/04 08:13:43;;;;;;;5.57;1.95;;;;;;;10.15;100.00;101346.66;6105479;23;20459;-81
2023/01/04 08:16:21;;;;;;;3.65;2.05;;;;;;;10.15;100.00;101347.41;6100597;23;20051;-83
2023/01/04 08:18:55;;;;;;;2.05;1.85;;;;;;;10.16;100.00;101340.91;6101073;23;20015;-84
2023/01/04 08:21:22;;;;;;;4.53;2.03;;;;;;;10.17;100.00;101352.31;6126236;23;20449;-83
2023/01/04 08:23:50;;;;;;;2.15;1.95;;;;;;;10.17;100.00;101342.41;6102444;23;20081;-83
2023/01/04 08:26:18;;;;;;;2.00;1.90;;;;;;;10.19;100.00;101342.00;6103035;23;20019;-83
2023/01/04 08:28:44;;;;;;;1.80;1.70;;;;;;;10.20;100.00;101340.84;6101571;23;20491;-83
2023/01/04 08:31:14;;;;;;;1.85;1.75;;;;;;;10.20;100.00;101340.84;6101694;23;20449;-82
2023/01/04 08:33:41;;;;;;;1.15;1.15;;;;;;;10.22;100.00;101343.84;6099995;23;20033;-82
2023/01/04 08:36:15;;;;;;;1.50;1.40;;;;;;;10.24;100.00;101331.59;6102059;23;20284;-83
2023/01/04 08:38:57;;;;;;;1.40;1.40;;;;;;;10.25;100.00;101338.41;6100848;23;20011;-82
2023/01/04 08:41:31;;;;;;;2.25;1.42;;;;;;;10.26;100.00;101339.16;6102035;23;20011;-81
2023/01/04 08:44:20;;;;;;;1.30;1.15;;;;;;;10.27;100.00;101336.09;6100263;23;20026;-81
2023/01/04 08:46:48;;;;;;;1.35;1.25;;;;;;;10.28;100.00;101345.56;6100573;23;20469;-80
2023/01/04 08:49:17;;;;;;;1.40;1.30;;;;;;;10.29;100.00;101348.97;6100301;23;20019;-82
2023/01/04 08:51:44;;;;;;;1.10;1.10;;;;;;;10.28;100.00;101342.91;6100052;23;20015;-82
2023/01/04 08:54:12;;;;;;;1.20;1.15;;;;;;;10.30;100.00;101351.22;6099831;23;20031;-82
2023/01/04 08:56:39;;;;;;;1.52;1.27;;;;;;;10.30;100.00;101355.78;6100485;23;20054;-83
2023/01/04 08:59:06;;;;;;;1.23;1.15;;;;;;;10.31;100.00;101351.97;6101852;23;20022;-82
2023/01/04 09:01:36;;;;;;;1.70;1.10;;;;;;;10.31;100.00;101350.03;6124178;23;20070;-83
2023/01/04 09:04:02;;;;;;;1.20;1.20;;;;;;;10.33;100.00;101360.28;6100496;23;20015;-82
2023/01/04 09:06:29;;;;;;;1.27;1.00;;;;;;;10.34;100.00;101354.53;6102038;23;20441;-82
2023/01/04 09:08:56;;;;;;;1.45;1.00;;;;;;;10.36;100.00;101362.09;6100004;23;20023;-82
2023/01/04 09:11:23;;;;;;;1.08;1.08;;;;;;;10.38;100.00;101361.66;6101881;23;20023;-82
2023/01/04 09:13:58;;;;;;;1.15;1.15;;;;;;;10.40;100.00;101354.00;6154865;23;20081;-82
2023/01/04 09:16:37;;;;;;;1.20;1.10;;;;;;;10.40;100.00;101364.66;6160655;23;20682;-82
2023/01/04 09:19:08;;;;;;;1.35;1.17;;;;;;;10.42;100.00;101356.97;6135929;23;20014;-82
2023/01/04 09:21:34;;;;;;;1.00;1.00;;;;;;;10.43;100.00;101367.19;6161518;23;20845;-83
2023/01/04 09:24:02;;;;;;;2.38;1.20;;;;;;;10.43;100.00;101372.50;6159950;23;20029;-85
2023/01/04 09:26:29;;;;;;;1.20;1.20;;;;;;;10.44;100.00;101365.28;6110590;23;20045;-84
2023/01/04 09:28:56;;;;;;;1.20;1.20;;;;;;;10.46;100.00;101365.59;6161587;23;20013;-85
2023/01/04 09:31:25;;;;;;;1.05;1.05;;;;;;;10.46;100.00;101374.34;6161015;23;20020;-84
2023/01/04 09:33:52;;;;;;;2.15;1.30;;;;;;;10.48;100.00;101379.97;6160314;23;20033;-84
2023/01/04 09:36:39;;;;;;;1.10;1.10;;;;;;;10.48;100.00;101379.97;6161177;23;20045;-80
2023/01/04 09:39:06;;;;;;;2.13;1.02;;;;;;;10.50;100.00;101377.66;6160471;23;20278;-79
2023/01/04 09:41:44;;;;;;;2.03;1.08;;;;;;;10.52;100.00;101385.22;6163866;23;20018;-89
2023/01/04 09:45:00;;;;;;;1.80;1.10;;;;;;;10.55;100.00;101385.13;6140301;23;20022;-87
2023/01/04 09:48:05;;;;;;;1.20;1.10;;;;;;;10.57;100.00;101379.38;6051351;23;20046;-84
2023/01/04 09:50:53;;;;;;;0.90;0.90;;;;;;;10.57;100.00;101377.44;6071464;23;20080;-83
2023/01/04 09:53:31;;;;;;;1.10;1.05;;;;;;;10.59;100.00;101383.09;6072744;23;20031;-85
2023/01/04 09:56:10;;;;;;;1.42;1.13;;;;;;;10.59;100.00;101377.78;6072173;23;20462;-84
2023/01/04 09:58:40;;;;;;;1.15;1.00;;;;;;;10.60;100.00;101381.19;6071981;23;20091;-83
2023/01/04 10:01:27;;;;;;;1.17;0.88;;;;;;;10.62;100.00;101378.84;6073128;23;20023;-86
2023/01/04 10:04:03;;;;;;;1.00;1.00;;;;;;;10.65;100.00;101380.66;6070719;23;20366;-81
2023/01/04 10:06:31;;;;;;;2.80;0.82;;;;;;;10.65;100.00;101384.06;6071427;23;20028;-83
2023/01/04 10:09:02;;;;;;;1.17;0.75;;;;;;;10.66;100.00;101388.22;6070024;23;20026;-86
2023/01/04 10:11:37;;;;;;;3.45;0.90;;;;;;;10.68;100.00;101391.22;6071078;23;20019;-81
2023/01/04 10:14:22;;;;;;;1.67;1.00;;;;;;;10.71;100.00;101404.84;6068766;23;20024;-83
2023/01/04 10:17:22;;;;;;;1.17;0.60;;;;;;;10.71;100.00;101394.94;6072406;23;20170;-79
2023/01/04 10:20:34;;;;;;;1.55;0.65;;;;;;;10.73;100.00;101389.94;6071006;23;20504;-81
2023/01/04 10:23:35;;;;;;;0.50;0.50;;;;;;;10.73;100.00;101384.63;6161366;23;20021;-81
2023/01/04 10:26:20;;;;;;;0.73;0.63;;;;;;;10.73;100.00;101381.97;6134560;23;20010;-82
2023/01/04 10:29:15;;;;;;;2.47;0.70;;;;;;;10.75;100.00;101376.22;6135007;23;20021;-82
2023/01/04 10:31:50;;;;;;;3.00;0.70;;;;;;;10.75;100.00;101378.88;6135280;23;20093;-81
2023/01/04 10:34:24;;;;;;;1.05;0.77;;;;;;;10.75;100.00;101376.22;6136895;23;20022;-83
2023/01/04 10:37:02;;;;;;;0.93;0.50;;;;;;;10.74;100.00;101375.47;6136417;23;20375;-83
2023/01/04 10:39:32;;;;;;;0.60;0.60;;;;;;;10.75;100.00;101386.88;6110926;23;20077;-82
2023/01/04 10:42:09;;;;;;;0.80;0.80;;;;;;;10.76;100.00;101383.03;6109543;23;20022;-82
2023/01/04 10:44:48;;;;;;;0.95;0.70;;;;;;;10.76;100.00;101370.47;6134795;23;20049;-81
2023/01/04 10:47:30;;;;;;;0.95;0.80;;;;;;;10.78;100.00;101376.09;6135960;23;20092;-83
2023/01/04 10:50:02;;;;;;;0.73;0.73;;;;;;;10.78;100.00;101368.13;6159247;23;20089;-83
2023/01/04 10:52:35;;;;;;;1.90;1.37;;;;;;;10.79;100.00;101364.28;6160892;23;20081;-79
2023/01/04 10:55:27;;;;;;;0.70;0.70;;;;;;;10.80;100.00;101365.75;6159745;23;20065;-82
2023/01/04 10:58:01;;;;;;;0.90;0.90;;;;;;;10.83;100.00;101369.47;6109009;23;20022;-83
2023/01/04 11:00:33;;;;;;;2.15;1.35;;;;;;;10.84;100.00;101363.72;6158865;23;20028;-82
2023/01/04 11:03:16;;;;;;;0.90;0.90;;;;;;;10.85;100.00;101365.22;6160198;23;20117;-83
2023/01/04 11:06:08;;;;;;;1.85;0.80;;;;;;;10.87;100.00;101332.84;6134008;23;20069;-83
2023/01/04 11:08:39;;;;;;;;;;;;;;;10.87;100.00;101349.56;6134084;23;20018;-82
2023/01/04 11:11:13;;;;;;;2.22;1.10;;;;;;;10.88;100.00;101358.31;6160506;23;19924;-83
2023/01/04 11:13:40;;;;;;;2.20;1.00;;;;;;;10.89;100.00;101341.16;6135723;23;20030;-84
2023/01/04 11:16:07;;;;;;;2.58;0.98;;;;;;;10.90;100.00;101335.41;6164446;23;20018;-87
2023/01/04 11:18:39;;;;;;;0.68;0.68;;;;;;;10.90;100.00;101337.31;6138334;23;20018;-89
2023/01/04 11:21:11;;;;;;;0.77;0.77;;;;;;;10.88;100.00;101339.66;6138132;23;20022;-85
2023/01/04 11:23:38;;;;;;;1.13;1.13;;;;;;;10.90;100.00;101338.06;6162756;23;20018;-84
2023/01/04 11:26:10;;;;;;;3.63;1.10;;;;;;;10.90;100.00;101322.06;6162664;23;20073;-84
2023/01/04 11:28:44;;;;;;;1.08;0.90;;;;;;;10.91;100.00;101309.50;6163124;23;20030;-84
2023/01/04 11:31:25;;;;;;;1.80;1.25;;;;;;;10.91;100.00;101322.81;6162694;23;20028;-82
2023/01/04 11:34:00;;;;;;;2.15;1.30;;;;;;;10.92;100.00;101305.66;6160936;23;20466;-85
2023/01/04 11:36:29;;;;;;;5.25;1.25;;;;;;;10.91;100.00;101318.25;6162773;23;20014;-82
2023/01/04 11:38:57;;;;;;;1.33;1.10;;;;;;;10.92;100.00;101308.34;6161987;23;20423;-83
2023/01/04 11:41:24;;;;;;;1.35;1.02;;;;;;;10.94;100.00;101314.72;6136776;23;20037;-81
2023/01/04 11:44:02;;;;;;;3.40;1.00;;;;;;;10.96;100.00;101309.72;6163168;23;20014;-84
2023/01/04 11:46:31;;;;;;;1.92;1.20;;;;;;;10.99;100.00;101324.84;6138118;23;20046;-82
2023/01/04 11:48:57;;;;;;;2.17;1.50;;;;;;;11.03;100.00;101298.09;6161672;23;20082;-86
2023/01/04 11:51:33;;;;;;;2.67;1.45;;;;;;;11.10;100.00;101297.13;6159856;23;20022;-87
2023/01/04 11:54:18;;;;;;;4.43;1.67;;;;;;;11.14;100.00;101295.09;6136121;23;20022;-90
2023/01/04 11:57:11;;;;;;;2.90;1.50;;;;;;;11.16;100.00;101306.81;6136180;23;20077;-81
2023/01/04 11:59:38;;;;;;;1.30;1.20;;;;;;;11.19;100.00;101329.22;6162797;23;20043;-82
2023/01/04 12:02:24;;;;;;;3.42;1.30;;;;;;;11.20;100.00;101328.00;6135600;23;20033;-81
2023/01/04 12:05:20;;;;;;;6.65;1.50;;;;;;;11.21;100.00;101319.59;6137314;23;20431;-82
2023/01/04 12:07:56;;;;;;;2.55;1.30;;;;;;;11.21;100.00;101314.25;6165181;23;20014;-82
2023/01/04 12:10:25;;;;;;;2.67;1.48;;;;;;;11.22;100.00;101278.44;6139260;23;20018;-82
2023/01/04 12:12:54;;;;;;;3.50;1.70;;;;;;;11.25;100.00;101317.56;6137264;23;20064;-83
2023/01/04 12:15:33;;;;;;;3.80;1.70;;;;;;;11.27;100.00;101312.53;6160416;23;20022;-84
2023/01/04 12:18:18;;;;;;;2.42;1.73;;;;;;;11.28;100.00;101286.63;6137817;23;20046;-84
2023/01/04 12:20:44;;;;;;;3.40;1.40;;;;;;;11.30;100.00;101284.28;6163136;23;20015;-85
2023/01/04 12:23:12;;;;;;;3.13;1.90;;;;;;;11.31;100.00;101312.44;6134500;23;20029;-84
2023/01/04 12:25:42;;;;;;;3.67;1.63;;;;;;;11.34;100.00;101304.31;6135361;23;20022;-84
2023/01/04 12:28:28;;;;;;;3.85;1.75;;;;;;;11.38;100.00;101312.19;6158659;23;20093;-84
2023/01/04 12:31:17;;;;;;;5.88;1.67;;;;;;;11.41;100.00;101294.59;6160786;23;20024;-85
2023/01/04 12:33:55;;;;;;;4.00;1.63;;;;;;;11.44;100.00;101299.06;6161726;23;20025;-83
2023/01/04 12:36:58;;;;;;;9.77;1.80;;;;;;;11.47;100.00;101290.97;6137870;23;20018;-85
2023/01/04 12:39:40;;;;;;;8.25;1.40;;;;;;;11.47;100.00;101288.28;6138669;23;20018;-85
2023/01/04 12:42:06;;;;;;;6.00;1.88;;;;;;;11.49;100.00;101291.28;6162043;23;20021;-84
2023/01/04 12:44:36;;;;;;;5.35;1.75;;;;;;;11.51;100.00;101291.59;6136856;23;20030;-85
2023/01/04 12:50:30;;;;;;;4.43;1.30;;;;;;;11.53;100.00;101283.16;6100667;23;20481;-84
2023/01/04 12:52:59;;;;;;;6.95;1.73;;;;;;;11.56;100.00;101285.72;6099247;23;20026;-84
2023/01/04 12:55:51;;;;;;;5.35;1.48;;;;;;;11.56;100.00;101293.72;6099490;23;20114;-84
2023/01/04 12:58:27;;;;;;;4.85;1.52;;;;;;;11.60;100.00;101286.31;6075772;23;20471;-84
2023/01/04 13:01:22;;;;;;;11.18;1.42;;;;;;;11.61;100.00;101289.72;6074398;23;20023;-84
2023/01/04 13:03:55;;;;;;;6.07;1.75;;;;;;;11.62;100.00;101302.63;6098540;23;20548;-84
2023/01/04 13:06:33;;;;;;;6.18;1.65;;;;;;;11.63;100.00;101309.44;6099322;23;20023;-84
2023/01/04 13:09:00;;;;;;;6.20;1.83;;;;;;;11.64;100.00;101310.94;6098122;23;20094;-84
2023/01/04 13:11:52;;;;;;;4.28;1.80;;;;;;;11.66;100.00;101308.59;6098589;23;20086;-84
2023/01/04 13:14:32;;;;;;;5.22;1.88;;;;;;;11.67;100.00;101312.75;6074164;23;20026;-84
2023/01/04 13:17:12;;;;;;;5.13;1.60;;;;;;;11.69;100.00;101307.72;6074615;23;20795;-84
2023/01/04 13:19:40;;;;;;;3.40;1.40;;;;;;;11.70;100.00;101313.81;6075191;23;20083;-84
2023/01/04 13:22:29;;;;;;;7.15;1.60;;;;;;;11.73;100.00;101312.19;6149867;23;20024;-83
2023/01/04 13:24:58;;;;;;;7.07;2.15;;;;;;;11.73;100.00;101301.53;6133524;23;20022;-84
2023/01/04 13:27:26;;;;;;;7.20;1.48;;;;;;;11.73;100.00;101302.28;6158493;23;20026;-84
2023/01/04 13:29:53;;;;;;;9.18;1.80;;;;;;;11.73;100.00;101320.19;6159857;23;20029;-83
2023/01/04 13:32:29;;;;;;;5.55;1.90;;;;;;;11.73;100.00;101304.94;6133838;23;20014;-85
2023/01/04 13:35:01;;;;;;;4.65;1.55;;;;;;;11.72;100.00;101308.78;6160734;23;20022;-88
2023/01/04 13:37:41;;;;;;;8.18;1.58;;;;;;;11.72;100.00;101303.44;6137028;23;20367;-87
2023/01/04 13:40:28;;;;;;;7.68;1.50;;;;;;;11.74;100.00;101303.00;6134548;23;20081;-87
2023/01/04 13:43:32;;;;;;;3.38;1.88;;;;;;;11.72;100.00;101294.69;6159005;23;20069;-88
2023/01/04 13:46:12;;;;;;;8.52;1.52;;;;;;;11.70;100.00;101285.22;6110519;23;20081;-88
2023/01/04 13:48:41;;;;;;;5.15;1.63;;;;;;;11.72;100.00;101286.69;6110988;23;20082;-88
2023/01/04 13:51:23;;;;;;;7.65;1.90;;;;;;;11.72;100.00;101271.44;6134097;23;20068;-88
2023/01/04 13:54:02;;;;;;;4.93;1.48;;;;;;;11.75;100.00;101288.50;6134425;23;20464;-86
2023/01/04 13:56:31;;;;;;;9.05;1.55;;;;;;;11.73;100.00;101280.19;6160047;23;20017;-86
2023/01/04 13:58:59;;;;;;;5.18;1.50;;;;;;;11.72;100.00;101286.69;6160062;23;20025;-84
2023/01/04 14:01:30;;;;;;;6.00;1.58;;;;;;;11.72;100.00;101290.09;6160475;23;20018;-85
2023/01/04 14:04:00;;;;;;;5.25;2.00;;;;;;;11.73;100.00;101296.19;6132835;23;20539;-81
2023/01/04 14:06:29;;;;;;;7.53;1.83;;;;;;;11.70;100.00;101281.78;6158999;23;20014;-80
2023/01/04 14:09:04;;;;;;;11.07;2.08;;;;;;;11.72;100.00;101284.78;6159539;23;20487;-79
2023/01/04 14:14:38;;;;;;;9.60;1.83;;;;;;;11.69;100.00;101280.31;6159834;23;20018;-81
2023/01/04 14:17:25;;;;;;;7.57;1.90;;;;;;;11.68;100.00;101271.56;6159234;23;20550;-82
2023/01/04 14:19:56;;;;;;;11.10;2.00;;;;;;;11.67;100.00;101269.31;6106990;23;20022;-80
2023/01/04 14:22:27;;;;;;;7.63;2.00;;;;;;;11.65;100.00;101283.09;6132225;23;20018;-84
2023/01/04 14:24:59;;;;;;;6.70;1.90;;;;;;;11.61;100.00;101285.13;6158307;23;20085;-82
2023/01/04 14:27:41;;;;;;;7.70;1.67;;;;;;;11.58;100.00;101277.28;6159571;23;20014;-82
2023/01/04 14:30:17;;;;;;;9.82;2.08;;;;;;;11.56;100.00;101280.38;6158870;23;20054;-82
2023/01/04 14:32:55;;;;;;;10.45;1.98;;;;;;;11.55;100.00;101275.47;6133824;23;20368;-82
2023/01/04 14:35:22;;;;;;;6.60;1.77;;;;;;;11.52;100.00;101279.75;6133005;23;20028;-82
2023/01/04 14:37:49;;;;;;;8.00;1.75;;;;;;;11.50;100.00;101282.09;6158028;23;20018;-82
2023/01/04 14:40:25;;;;;;;8.68;1.90;;;;;;;11.50;100.00;101287.44;6133385;23;20056;-82
2023/01/04 14:42:53;;;;;;;6.78;1.50;;;;;;;11.48;100.00;101286.38;6133121;23;20427;-82
2023/01/04 14:45:20;;;;;;;7.82;1.63;;;;;;;11.46;100.00;101281.47;6132676;23;20014;-82
2023/01/04 14:47:47;;;;;;;6.65;1.88;;;;;;;11.46;100.00;101278.06;6133397;23;20018;-81
2023/01/04 14:50:16;;;;;;;9.35;1.63;;;;;;;11.47;100.00;101284.88;6157226;23;20109;-82